»·PEaware :: N65415 KSNA-KWHP

N65415 :: KSNA-KWHP

FLIGHT INFORMATION

Flight Status: Arrived
Operator: Privately registered:
United States
More flights under this callsign
Pilot: Stephane C. (508)
Aircraft: CESSNA 172 SKYHAWK
(C172)
More flights by this aircraft type
Origin: KSNA John Wayne-Orange Co
United States
Destination: KWHP Whiteman
United States
More flights between these airports :: More routes between these airports
Route: +
File this flight plan on PilotEdge
Remarks: NFF
Altitude:
(Current/Filed)
2,000ft
Speed:
(Current/Filed)
0kts
Departed: 08-Jan-18 09:35 AM
Arrived: 08-Jan-18 10:26 AM
Distance/Time
Traveled:
44nm/0:51
Distance/Time
To Go:
Arrived

Flight Plot

Page will automatically refresh every two minutes.


Map Options




Map Legend


Flown Route
Filed Route
Departure Airport
Arrival Airport
Navaid (VOR, NDB)
Fix

Horizontal Profiles

Position Reports

Time Latitude Longitude Heading Altitude Ground
Speed
08-Jan-18 09:33 33.675842 -117.870876 44 49ft 0kts
08-Jan-18 09:34 33.675848 -117.870868 41 49ft 0kts
08-Jan-18 09:35 33.675858 -117.870856 40 49ft 0kts
08-Jan-18 09:36 33.676389 -117.869886 27 49ft 8kts
08-Jan-18 09:37 33.679560 -117.867986 13 49ft 14kts
08-Jan-18 09:38 33.681188 -117.866379 117 49ft 0kts
08-Jan-18 09:39 33.681188 -117.866379 117 49ft 0kts
08-Jan-18 09:40 33.680747 -117.865632 192 49ft 5kts
08-Jan-18 09:41 33.671024 -117.871818 207 239ft 79kts
08-Jan-18 09:42 33.666853 -117.891837 337 1009ft 87kts
08-Jan-18 09:43 33.690463 -117.902444 336 1523ft 115kts
08-Jan-18 09:44 33.722198 -117.916836 340 1453ft 122kts
08-Jan-18 09:45 33.747972 -117.938021 271 1466ft 121kts
08-Jan-18 09:46 33.732910 -117.974085 237 1452ft 122kts
08-Jan-18 09:47 33.715686 -118.009224 252 1452ft 123kts
08-Jan-18 09:48 33.710199 -118.049539 262 1498ft 122kts
08-Jan-18 09:49 33.716108 -118.089226 295 1516ft 121kts
08-Jan-18 09:50 33.725273 -118.128234 279 1566ft 122kts
08-Jan-18 09:51 33.724349 -118.168441 264 1661ft 120kts
08-Jan-18 09:52 33.718977 -118.208112 261 1723ft 120kts
08-Jan-18 09:53 33.713707 -118.247752 265 1767ft 119kts
08-Jan-18 09:54 33.712149 -118.288137 267 1766ft 120kts
08-Jan-18 09:55 33.711144 -118.328639 269 1745ft 121kts
08-Jan-18 09:56 33.709741 -118.369086 265 1731ft 121kts
08-Jan-18 09:57 33.709491 -118.409529 276 1705ft 121kts
08-Jan-18 09:58 33.716402 -118.449255 288 1679ft 121kts
08-Jan-18 09:59 33.726089 -118.487960 284 1680ft 120kts
08-Jan-18 10:00 33.733998 -118.527086 283 1702ft 120kts
08-Jan-18 10:01 33.742559 -118.565444 306 1723ft 120kts
08-Jan-18 10:02 33.767747 -118.592131 322 1693ft 121kts
08-Jan-18 10:03 33.793304 -118.617929 325 1709ft 119kts
08-Jan-18 10:04 33.820021 -118.641800 323 1705ft 119kts
08-Jan-18 10:05 33.845903 -118.665909 326 1689ft 119kts
08-Jan-18 10:06 33.873813 -118.687497 327 1676ft 119kts
08-Jan-18 10:07 33.900558 -118.711281 323 1662ft 119kts
08-Jan-18 10:08 33.926881 -118.735627 322 1645ft 120kts
08-Jan-18 10:09 33.953165 -118.760240 322 1633ft 120kts
08-Jan-18 10:10 33.978627 -118.786448 326 1608ft 120kts
08-Jan-18 10:11 34.007099 -118.783323 35 1899ft 107kts
08-Jan-18 10:12 34.029904 -118.761726 50 2560ft 103kts
08-Jan-18 10:13 34.048290 -118.735136 47 3114ft 103kts
08-Jan-18 10:14 34.065960 -118.710084 51 3624ft 99kts
08-Jan-18 10:15 34.092767 -118.693682 23 3740ft 117kts
08-Jan-18 10:16 34.117693 -118.673882 70 3550ft 114kts
08-Jan-18 10:17 34.125875 -118.635723 71 3667ft 118kts
08-Jan-18 10:18 34.136526 -118.597288 66 3527ft 119kts
08-Jan-18 10:19 34.144875 -118.558463 77 3487ft 122kts
08-Jan-18 10:20 34.150548 -118.518081 78 3492ft 119kts
08-Jan-18 10:21 34.157519 -118.479044 78 3492ft 122kts
08-Jan-18 10:22 34.173888 -118.448857 2 3551ft 112kts
08-Jan-18 10:23 34.204636 -118.440827 10 3609ft 114kts
08-Jan-18 10:24 34.234792 -118.425803 25 3126ft 105kts
08-Jan-18 10:25 34.258758 -118.410547 23 3078ft 102kts
08-Jan-18 10:26 34.284376 -118.409364 311 2754ft 85kts
08-Jan-18 10:27 34.297467 -118.427741 304 2174ft 67kts
08-Jan-18 10:28 34.308641 -118.445576 292 1917ft 64kts
08-Jan-18 10:29 34.295553 -118.451735 147 1834ft 69kts
08-Jan-18 10:30 34.280830 -118.436355 141 1604ft 66kts
08-Jan-18 10:31 34.267326 -118.421977 141 1220ft 66kts
08-Jan-18 10:32 34.259429 -118.413101 47 1015ft 0kts
08-Jan-18 10:33 34.260006 -118.412311 47 1015ft 9kts
08-Jan-18 10:34 34.261407 -118.413267 320 1015ft 4kts
08-Jan-18 10:35 34.262517 -118.414435 318 1015ft 3kts
08-Jan-18 10:36 34.262209 -118.414943 125 1015ft 0kts
08-Jan-18 10:37 34.262171 -118.414867 137 1015ft 0kts
08-Jan-18 10:38 34.262171 -118.414867 137 1015ft 0kts
08-Jan-18 10:39 34.262171 -118.414867 137 1015ft 0kts
08-Jan-18 10:40 34.262171 -118.414867 137 1015ft 0kts
08-Jan-18 10:41 34.262171 -118.414867 137 1015ft 0kts

Navigation Log

Ident Type
Flight plan parsing failed, navigation log unavailable